sensor_id;sensor_type;location;lat;lon;timestamp;pressure;altitude;pressure_sealevel;temperature;humidity
62942;BME280;49042;47.318;19.874;2022-09-27T00:02:37;99269.56;;;12.32;100.00
62942;BME280;49042;47.318;19.874;2022-09-27T00:05:39;99261.56;;;12.07;100.00
62942;BME280;49042;47.318;19.874;2022-09-27T00:08:41;99258.03;;;11.97;100.00
62942;BME280;49042;47.318;19.874;2022-09-27T00:11:43;99259.75;;;11.95;100.00
62942;BME280;49042;47.318;19.874;2022-09-27T00:14:45;99255.38;;;11.92;100.00
62942;BME280;49042;47.318;19.874;2022-09-27T00:17:47;99258.88;;;11.93;100.00
62942;BME280;49042;47.318;19.874;2022-09-27T00:20:52;99250.19;;;11.97;100.00
62942;BME280;49042;47.318;19.874;2022-09-27T00:23:54;99248.53;;;12.08;100.00
62942;BME280;49042;47.318;19.874;2022-09-27T00:26:56;99255.47;;;12.06;100.00
62942;BME280;49042;47.318;19.874;2022-09-27T00:29:58;99248.47;;;12.05;100.00
62942;BME280;49042;47.318;19.874;2022-09-27T00:32:59;99246.69;;;11.98;100.00
62942;BME280;49042;47.318;19.874;2022-09-27T00:36:05;99242.28;;;11.89;100.00
62942;BME280;49042;47.318;19.874;2022-09-27T00:39:07;99241.41;;;11.88;100.00
62942;BME280;49042;47.318;19.874;2022-09-27T00:42:10;99235.22;;;11.72;100.00
62942;BME280;49042;47.318;19.874;2022-09-27T00:45:14;99229.88;;;11.53;100.00
62942;BME280;49042;47.318;19.874;2022-09-27T00:48:22;99215.13;;;11.60;100.00
62942;BME280;49042;47.318;19.874;2022-09-27T00:51:28;99211.72;;;11.72;100.00
62942;BME280;49042;47.318;19.874;2022-09-27T00:54:32;99219.56;;;11.74;100.00
62942;BME280;49042;47.318;19.874;2022-09-27T00:57:35;99211.75;;;11.78;100.00
62942;BME280;49042;47.318;19.874;2022-09-27T01:00:39;99215.97;;;11.54;100.00
62942;BME280;49042;47.318;19.874;2022-09-27T01:03:58;99207.22;;;11.52;100.00
62942;BME280;49042;47.318;19.874;2022-09-27T01:07:01;99204.59;;;11.52;100.00
62942;BME280;49042;47.318;19.874;2022-09-27T01:10:04;99202.81;;;11.45;100.00
62942;BME280;49042;47.318;19.874;2022-09-27T01:23:48;99185.31;;;11.27;100.00
62942;BME280;49042;47.318;19.874;2022-09-27T01:30:15;99167.84;;;11.19;100.00
62942;BME280;49042;47.318;19.874;2022-09-27T01:37:05;99172.13;;;11.14;100.00
62942;BME280;49042;47.318;19.874;2022-09-27T01:41:17;99171.09;;;10.91;100.00
62942;BME280;49042;47.318;19.874;2022-09-27T01:44:24;99170.25;;;10.97;100.00
62942;BME280;49042;47.318;19.874;2022-09-27T01:47:41;99158.81;;;10.79;100.00
62942;BME280;49042;47.318;19.874;2022-09-27T01:50:54;99170.22;;;10.92;100.00
62942;BME280;49042;47.318;19.874;2022-09-27T01:54:00;99164.03;;;10.79;100.00
62942;BME280;49042;47.318;19.874;2022-09-27T01:57:06;99170.13;;;10.83;100.00
62942;BME280;49042;47.318;19.874;2022-09-27T02:00:10;99163.16;;;10.82;100.00
62942;BME280;49042;47.318;19.874;2022-09-27T02:03:16;99163.91;;;10.67;100.00
62942;BME280;49042;47.318;19.874;2022-09-27T02:06:26;99162.28;;;10.80;100.00
62942;BME280;49042;47.318;19.874;2022-09-27T02:09:49;99161.34;;;10.75;100.00
62942;BME280;49042;47.318;19.874;2022-09-27T02:13:03;99151.78;;;10.72;100.00
62942;BME280;49042;47.318;19.874;2022-09-27T02:16:21;99153.63;;;10.82;100.00
62942;BME280;49042;47.318;19.874;2022-09-27T02:22:38;99141.53;;;10.94;100.00
62942;BME280;49042;47.318;19.874;2022-09-27T02:25:43;99131.16;;;11.00;100.00
62942;BME280;49042;47.318;19.874;2022-09-27T02:29:20;99129.28;;;10.85;100.00
62942;BME280;49042;47.318;19.874;2022-09-27T02:32:20;99137.91;;;10.76;100.00
62942;BME280;49042;47.318;19.874;2022-09-27T02:35:31;99134.44;;;10.77;100.00
62942;BME280;49042;47.318;19.874;2022-09-27T02:38:33;99120.53;;;10.78;100.00
62942;BME280;49042;47.318;19.874;2022-09-27T02:41:35;99125.84;;;10.88;100.00
62942;BME280;49042;47.318;19.874;2022-09-27T02:44:37;99121.44;;;10.82;100.00
62942;BME280;49042;47.318;19.874;2022-09-27T02:51:25;99120.50;;;10.70;100.00
62942;BME280;49042;47.318;19.874;2022-09-27T03:01:36;99117.81;;;10.66;100.00
62942;BME280;49042;47.318;19.874;2022-09-27T03:05:06;99124.00;;;10.74;100.00
62942;BME280;49042;47.318;19.874;2022-09-27T03:08:09;99123.06;;;10.69;100.00
62942;BME280;49042;47.318;19.874;2022-09-27T03:11:11;99117.09;;;10.81;100.00
62942;BME280;49042;47.318;19.874;2022-09-27T03:14:13;99114.34;;;10.65;100.00
62942;BME280;49042;47.318;19.874;2022-09-27T03:17:15;99108.38;;;10.82;100.00
62942;BME280;49042;47.318;19.874;2022-09-27T03:20:17;99109.97;;;10.64;100.00
62942;BME280;49042;47.318;19.874;2022-09-27T03:23:21;99112.56;;;10.61;100.00
62942;BME280;49042;47.318;19.874;2022-09-27T03:26:23;99112.56;;;10.61;100.00
62942;BME280;49042;47.318;19.874;2022-09-27T03:29:25;99108.09;;;10.50;100.00
62942;BME280;49042;47.318;19.874;2022-09-27T03:32:27;99106.31;;;10.49;100.00
62942;BME280;49042;47.318;19.874;2022-09-27T03:35:29;99100.53;;;10.74;100.00
62942;BME280;49042;47.318;19.874;2022-09-27T03:38:31;99102.19;;;10.67;100.00
62942;BME280;49042;47.318;19.874;2022-09-27T03:41:33;99104.81;;;10.69;100.00
62942;BME280;49042;47.318;19.874;2022-09-27T03:44:37;99105.62;;;10.60;100.00
62942;BME280;49042;47.318;19.874;2022-09-27T03:47:40;99102.16;;;10.64;100.00
62942;BME280;49042;47.318;19.874;2022-09-27T03:50:42;99095.06;;;10.50;100.00
62942;BME280;49042;47.318;19.874;2022-09-27T03:53:50;99107.22;;;10.48;100.00
62942;BME280;49042;47.318;19.874;2022-09-27T03:56:52;99104.50;;;10.37;100.00
62942;BME280;49042;47.318;19.874;2022-09-27T03:59:54;99093.25;;;10.42;100.00
62942;BME280;49042;47.318;19.874;2022-09-27T04:02:55;99099.66;;;10.74;100.00
62942;BME280;49042;47.318;19.874;2022-09-27T04:05:57;99092.41;;;10.46;100.00
62942;BME280;49042;47.318;19.874;2022-09-27T04:09:01;99096.69;;;10.41;100.00
62942;BME280;49042;47.318;19.874;2022-09-27T04:12:03;99095.84;;;10.42;100.00
62942;BME280;49042;47.318;19.874;2022-09-27T04:15:06;99093.25;;;10.42;100.00
62942;BME280;49042;47.318;19.874;2022-09-27T04:18:09;99094.06;;;10.39;100.00
62942;BME280;49042;47.318;19.874;2022-09-27T04:21:11;99079.59;;;10.68;100.00
62942;BME280;49042;47.318;19.874;2022-09-27T04:24:13;99086.59;;;10.75;100.00
62942;BME280;49042;47.318;19.874;2022-09-27T04:27:15;99074.31;;;10.62;100.00
62942;BME280;49042;47.318;19.874;2022-09-27T04:30:17;99065.41;;;10.41;100.00
62942;BME280;49042;47.318;19.874;2022-09-27T04:33:19;99065.38;;;10.36;100.00
62942;BME280;49042;47.318;19.874;2022-09-27T04:36:22;99064.59;;;10.46;100.00
62942;BME280;49042;47.318;19.874;2022-09-27T04:39:30;99064.41;;;10.26;100.00
62942;BME280;49042;47.318;19.874;2022-09-27T04:42:31;99079.03;;;10.11;100.00
62942;BME280;49042;47.318;19.874;2022-09-27T04:45:35;99077.03;;;9.90;100.00
62942;BME280;49042;47.318;19.874;2022-09-27T04:48:37;99084.88;;;9.91;100.00
62942;BME280;49042;47.318;19.874;2022-09-27T04:51:39;99098.62;;;9.79;100.00
62942;BME280;49042;47.318;19.874;2022-09-27T04:54:41;99095.28;;;9.90;100.00
62942;BME280;49042;47.318;19.874;2022-09-27T04:57:43;99086.44;;;9.75;100.00
62942;BME280;49042;47.318;19.874;2022-09-27T05:00:46;99076.16;;;9.88;100.00
62942;BME280;49042;47.318;19.874;2022-09-27T05:03:48;99072.63;;;9.82;100.00
62942;BME280;49042;47.318;19.874;2022-09-27T05:06:50;99083.62;;;9.59;100.00
62942;BME280;49042;47.318;19.874;2022-09-27T05:09:59;99082.66;;;9.49;100.00
62942;BME280;49042;47.318;19.874;2022-09-27T05:13:01;99073.47;;;9.78;100.00
62942;BME280;49042;47.318;19.874;2022-09-27T05:16:03;99073.38;;;9.72;100.00
62942;BME280;49042;47.318;19.874;2022-09-27T05:19:06;99070.78;;;9.73;100.00
62942;BME280;49042;47.318;19.874;2022-09-27T05:22:07;99069.19;;;9.85;100.00
62942;BME280;49042;47.318;19.874;2022-09-27T05:25:12;99060.62;;;9.97;100.00
62942;BME280;49042;47.318;19.874;2022-09-27T05:28:14;99063.19;;;9.91;100.00
62942;BME280;49042;47.318;19.874;2022-09-27T05:31:16;99063.19;;;9.89;100.00
62942;BME280;49042;47.318;19.874;2022-09-27T05:34:18;99055.47;;;10.00;100.00
62942;BME280;49042;47.318;19.874;2022-09-27T05:37:22;99049.47;;;10.06;100.00
62942;BME280;49042;47.318;19.874;2022-09-27T05:40:25;99054.00;;;10.24;100.00
62942;BME280;49042;47.318;19.874;2022-09-27T05:43:41;99051.41;;;10.27;100.00
62942;BME280;49042;47.318;19.874;2022-09-27T05:46:43;99053.78;;;10.05;100.00
62942;BME280;49042;47.318;19.874;2022-09-27T05:49:46;99048.44;;;9.91;100.00
62942;BME280;49042;47.318;19.874;2022-09-27T05:52:50;99049.28;;;9.89;100.00
62942;BME280;49042;47.318;19.874;2022-09-27T05:55:52;99032.06;;;10.03;100.00
62942;BME280;49042;47.318;19.874;2022-09-27T05:58:54;99038.03;;;9.94;100.00
62942;BME280;49042;47.318;19.874;2022-09-27T06:01:56;99029.44;;;10.02;100.00
62942;BME280;49042;47.318;19.874;2022-09-27T06:04:58;99035.75;;;10.24;100.00
62942;BME280;49042;47.318;19.874;2022-09-27T06:08:04;99042.13;;;10.55;100.00
62942;BME280;49042;47.318;19.874;2022-09-27T06:11:08;99030.03;;;10.63;100.00
62942;BME280;49042;47.318;19.874;2022-09-27T06:14:11;99023.94;;;10.64;100.00
62942;BME280;49042;47.318;19.874;2022-09-27T06:17:20;99032.59;;;10.62;100.00
62942;BME280;49042;47.318;19.874;2022-09-27T06:20:23;99022.31;;;10.77;100.00
62942;BME280;49042;47.318;19.874;2022-09-27T06:23:29;99027.53;;;10.80;100.00
62942;BME280;49042;47.318;19.874;2022-09-27T06:26:33;99023.06;;;10.62;100.00
62942;BME280;49042;47.318;19.874;2022-09-27T06:29:35;99023.78;;;10.45;100.00
62942;BME280;49042;47.318;19.874;2022-09-27T06:32:38;99033.22;;;10.34;100.00
62942;BME280;49042;47.318;19.874;2022-09-27T06:35:42;99038.41;;;10.31;100.00
62942;BME280;49042;47.318;19.874;2022-09-27T06:38:46;99040.16;;;10.33;100.00
62942;BME280;49042;47.318;19.874;2022-09-27T06:41:52;99049.94;;;10.55;100.00
62942;BME280;49042;47.318;19.874;2022-09-27T06:44:58;99039.63;;;10.69;100.00
62942;BME280;49042;47.318;19.874;2022-09-27T06:48:07;99035.50;;;11.02;100.00
62942;BME280;49042;47.318;19.874;2022-09-27T06:51:09;99027.88;;;11.37;100.00
62942;BME280;49042;47.318;19.874;2022-09-27T06:54:11;99020.91;;;11.39;100.00
62942;BME280;49042;47.318;19.874;2022-09-27T06:57:12;99014.00;;;11.55;100.00
62942;BME280;49042;47.318;19.874;2022-09-27T07:00:34;99015.88;;;11.89;100.00
62942;BME280;49042;47.318;19.874;2022-09-27T07:03:36;99013.28;;;12.05;100.00
62942;BME280;49042;47.318;19.874;2022-09-27T07:06:42;99019.44;;;12.17;100.00
62942;BME280;49042;47.318;19.874;2022-09-27T07:09:43;99021.06;;;11.82;100.00
62942;BME280;49042;47.318;19.874;2022-09-27T07:12:45;99024.53;;;11.71;100.00
62942;BME280;49042;47.318;19.874;2022-09-27T07:15:49;99030.66;;;11.89;100.00
62942;BME280;49042;47.318;19.874;2022-09-27T07:18:50;99042.97;;;12.22;100.00
62942;BME280;49042;47.318;19.874;2022-09-27T07:21:53;99034.25;;;12.51;100.00
62942;BME280;49042;47.318;19.874;2022-09-27T07:24:54;99036.81;;;11.97;100.00
62942;BME280;49042;47.318;19.874;2022-09-27T07:28:07;99039.41;;;12.01;100.00
62942;BME280;49042;47.318;19.874;2022-09-27T07:31:10;99026.28;;;11.82;100.00
62942;BME280;49042;47.318;19.874;2022-09-27T07:34:12;99028.06;;;11.89;100.00
62942;BME280;49042;47.318;19.874;2022-09-27T07:37:14;99024.59;;;11.90;100.00
62942;BME280;49042;47.318;19.874;2022-09-27T07:40:17;99027.22;;;12.06;100.00
62942;BME280;49042;47.318;19.874;2022-09-27T07:43:20;99023.81;;;12.21;100.00
62942;BME280;49042;47.318;19.874;2022-09-27T07:46:22;99015.09;;;12.41;100.00
62942;BME280;49042;47.318;19.874;2022-09-27T07:49:24;99015.97;;;12.57;100.00
62942;BME280;49042;47.318;19.874;2022-09-27T07:52:26;99015.13;;;12.61;100.00
62942;BME280;49042;47.318;19.874;2022-09-27T07:55:31;99029.91;;;12.69;100.00
62942;BME280;49042;47.318;19.874;2022-09-27T07:58:33;99048.22;;;12.80;100.00
62942;BME280;49042;47.318;19.874;2022-09-27T08:01:35;99056.94;;;12.55;100.00
62942;BME280;49042;47.318;19.874;2022-09-27T08:04:37;99048.22;;;12.69;100.00
62942;BME280;49042;47.318;19.874;2022-09-27T08:07:39;99046.50;;;12.60;100.00
62942;BME280;49042;47.318;19.874;2022-09-27T08:10:41;99043.00;;;12.45;100.00
62942;BME280;49042;47.318;19.874;2022-09-27T08:13:45;99046.50;;;12.57;100.00
62942;BME280;49042;47.318;19.874;2022-09-27T08:16:47;99033.37;;;12.87;100.00
62942;BME280;49042;47.318;19.874;2022-09-27T08:19:48;99039.53;;;12.68;100.00
62942;BME280;49042;47.318;19.874;2022-09-27T08:22:50;99039.50;;;12.87;100.00
62942;BME280;49042;47.318;19.874;2022-09-27T08:25:53;99037.75;;;12.73;100.00
62942;BME280;49042;47.318;19.874;2022-09-27T08:28:55;99043.88;;;12.79;100.00
62942;BME280;49042;47.318;19.874;2022-09-27T08:31:57;99043.00;;;12.81;100.00
62942;BME280;49042;47.318;19.874;2022-09-27T08:34:59;99045.63;;;12.78;100.00
62942;BME280;49042;47.318;19.874;2022-09-27T08:38:02;99037.75;;;12.83;100.00
62942;BME280;49042;47.318;19.874;2022-09-27T08:41:21;99036.00;;;12.93;100.00
62942;BME280;49042;47.318;19.874;2022-09-27T08:45:02;99032.44;;;13.32;100.00
62942;BME280;49042;47.318;19.874;2022-09-27T08:48:10;99026.34;;;13.19;100.00
62942;BME280;49042;47.318;19.874;2022-09-27T08:51:13;99018.53;;;12.90;100.00
62942;BME280;49042;47.318;19.874;2022-09-27T08:54:20;99021.97;;;13.19;100.00
62942;BME280;49042;47.318;19.874;2022-09-27T08:57:23;99025.50;;;13.10;100.00
62942;BME280;49042;47.318;19.874;2022-09-27T09:00:28;99032.44;;;13.27;100.00
62942;BME280;49042;47.318;19.874;2022-09-27T09:03:32;99027.22;;;13.19;100.00
62942;BME280;49042;47.318;19.874;2022-09-27T09:06:42;99014.97;;;13.29;100.00
62942;BME280;49042;47.318;19.874;2022-09-27T09:16:37;99017.16;;;14.22;100.00
62942;BME280;49042;47.318;19.874;2022-09-27T09:27:21;99020.88;;;13.86;100.00
62942;BME280;49042;47.318;19.874;2022-09-27T09:30:39;99013.00;;;13.86;100.00
62942;BME280;49042;47.318;19.874;2022-09-27T09:33:56;99005.09;;;13.97;100.00
62942;BME280;49042;47.318;19.874;2022-09-27T09:37:04;98988.34;;;14.19;100.00
62942;BME280;49042;47.318;19.874;2022-09-27T09:40:21;98994.97;;;14.65;100.00
62942;BME280;49042;47.318;19.874;2022-09-27T09:43:46;99000.03;;;14.83;100.00
62942;BME280;49042;47.318;19.874;2022-09-27T09:46:54;99000.19;;;14.67;100.00
62942;BME280;49042;47.318;19.874;2022-09-27T09:50:01;98994.25;;;14.48;100.00
62942;BME280;49042;47.318;19.874;2022-09-27T09:56:42;99000.56;;;14.18;100.00
62942;BME280;49042;47.318;19.874;2022-09-27T10:00:16;98999.81;;;14.05;100.00
62942;BME280;49042;47.318;19.874;2022-09-27T10:03:19;98999.72;;;14.15;100.00
62942;BME280;49042;47.318;19.874;2022-09-27T10:06:23;98995.13;;;14.47;100.00
62942;BME280;49042;47.318;19.874;2022-09-27T10:09:31;98986.25;;;14.62;100.00
62942;BME280;49042;47.318;19.874;2022-09-27T10:12:34;98983.50;;;14.74;100.00
62942;BME280;49042;47.318;19.874;2022-09-27T10:15:37;98980.63;;;15.04;100.00
62942;BME280;49042;47.318;19.874;2022-09-27T10:18:39;98970.94;;;15.06;100.00
62942;BME280;49042;47.318;19.874;2022-09-27T10:21:48;98967.41;;;15.09;100.00
62942;BME280;49042;47.318;19.874;2022-09-27T10:27:58;98974.88;;;14.63;100.00
62942;BME280;49042;47.318;19.874;2022-09-27T10:31:06;98967.44;;;15.06;100.00
62942;BME280;49042;47.318;19.874;2022-09-27T10:34:34;98953.00;;;15.43;100.00
62942;BME280;49042;47.318;19.874;2022-09-27T10:37:38;98937.31;;;16.00;100.00
62942;BME280;49042;47.318;19.874;2022-09-27T10:40:40;98932.84;;;16.59;96.65
62942;BME280;49042;47.318;19.874;2022-09-27T10:43:41;98925.06;;;15.99;97.91
62942;BME280;49042;47.318;19.874;2022-09-27T10:46:57;98920.31;;;15.63;100.00
62942;BME280;49042;47.318;19.874;2022-09-27T10:50:04;98918.78;;;15.48;100.00
62942;BME280;49042;47.318;19.874;2022-09-27T10:53:16;98912.41;;;16.25;100.00
62942;BME280;49042;47.318;19.874;2022-09-27T10:56:27;98914.50;;;16.56;97.35
62942;BME280;49042;47.318;19.874;2022-09-27T10:59:33;98896.53;;;16.77;94.95
62942;BME280;49042;47.318;19.874;2022-09-27T11:02:36;98890.47;;;16.74;95.85
62942;BME280;49042;47.318;19.874;2022-09-27T11:05:41;98887.78;;;16.75;94.66
62942;BME280;49042;47.318;19.874;2022-09-27T11:08:43;98900.50;;;16.00;98.14
62942;BME280;49042;47.318;19.874;2022-09-27T11:11:47;98897.28;;;15.82;100.00
62942;BME280;49042;47.318;19.874;2022-09-27T11:15:00;98890.88;;;15.99;100.00
62942;BME280;49042;47.318;19.874;2022-09-27T11:18:25;98877.88;;;15.90;100.00
62942;BME280;49042;47.318;19.874;2022-09-27T11:21:43;98874.00;;;16.14;100.00
62942;BME280;49042;47.318;19.874;2022-09-27T11:25:25;98862.22;;;15.82;100.00
62942;BME280;49042;47.318;19.874;2022-09-27T11:28:36;98867.72;;;15.68;100.00
62942;BME280;49042;47.318;19.874;2022-09-27T11:39:05;98863.28;;;15.70;100.00
62942;BME280;49042;47.318;19.874;2022-09-27T11:46:23;98857.22;;;15.66;100.00
62942;BME280;49042;47.318;19.874;2022-09-27T12:03:31;98822.69;;;15.88;100.00
62942;BME280;49042;47.318;19.874;2022-09-27T12:06:52;98813.00;;;15.92;100.00
62942;BME280;49042;47.318;19.874;2022-09-27T12:10:03;98811.56;;;16.24;100.00
62942;BME280;49042;47.318;19.874;2022-09-27T12:13:10;98819.22;;;16.38;100.00
62942;BME280;49042;47.318;19.874;2022-09-27T12:16:14;98819.47;;;16.23;100.00
62942;BME280;49042;47.318;19.874;2022-09-27T12:19:21;98816.22;;;16.11;100.00
62942;BME280;49042;47.318;19.874;2022-09-27T12:22:54;98809.56;;;16.39;100.00
62942;BME280;49042;47.318;19.874;2022-09-27T12:26:25;98808.19;;;16.64;100.00
62942;BME280;49042;47.318;19.874;2022-09-27T12:29:31;98811.09;;;16.50;99.26
62942;BME280;49042;47.318;19.874;2022-09-27T12:36:08;98793.88;;;17.92;90.55
62942;BME280;49042;47.318;19.874;2022-09-27T12:42:23;98782.53;;;17.88;87.12
62942;BME280;49042;47.318;19.874;2022-09-27T12:52:30;98785.03;;;17.21;87.62
62942;BME280;49042;47.318;19.874;2022-09-27T12:55:49;98780.81;;;17.12;88.14
62942;BME280;49042;47.318;19.874;2022-09-27T12:59:22;98780.19;;;17.01;89.51
62942;BME280;49042;47.318;19.874;2022-09-27T13:06:09;98771.81;;;16.83;91.93
62942;BME280;49042;47.318;19.874;2022-09-27T13:12:33;98763.38;;;17.47;90.28
62942;BME280;49042;47.318;19.874;2022-09-27T13:15:36;98757.03;;;17.54;88.48
62942;BME280;49042;47.318;19.874;2022-09-27T13:21:54;98746.41;;;17.59;88.39
62942;BME280;49042;47.318;19.874;2022-09-27T13:24:57;98749.06;;;17.57;88.67
62942;BME280;49042;47.318;19.874;2022-09-27T13:27:59;98751.69;;;17.57;88.89
62942;BME280;49042;47.318;19.874;2022-09-27T13:31:11;98737.50;;;17.63;88.71
62942;BME280;49042;47.318;19.874;2022-09-27T13:34:37;98732.62;;;20.39;73.54
62942;BME280;49042;47.318;19.874;2022-09-27T13:37:55;98732.22;;;23.58;58.83
62942;BME280;49042;47.318;19.874;2022-09-27T13:41:17;98727.03;;;26.15;48.46
62942;BME280;49042;47.318;19.874;2022-09-27T13:44:35;98735.63;;;22.87;57.24
62942;BME280;49042;47.318;19.874;2022-09-27T13:47:46;98728.84;;;22.22;61.63
62942;BME280;49042;47.318;19.874;2022-09-27T13:50:54;98723.69;;;22.96;57.85
62942;BME280;49042;47.318;19.874;2022-09-27T13:54:05;98714.72;;;22.79;58.21
62942;BME280;49042;47.318;19.874;2022-09-27T14:00:41;98711.25;;;22.58;58.97
62942;BME280;49042;47.318;19.874;2022-09-27T14:03:45;98712.63;;;21.23;64.34
62942;BME280;49042;47.318;19.874;2022-09-27T14:06:49;98719.13;;;20.69;66.76
62942;BME280;49042;47.318;19.874;2022-09-27T14:09:54;98709.19;;;19.51;71.99
62942;BME280;49042;47.318;19.874;2022-09-27T14:12:59;98699.25;;;19.03;75.44
62942;BME280;49042;47.318;19.874;2022-09-27T14:16:04;98697.00;;;18.61;77.50
62942;BME280;49042;47.318;19.874;2022-09-27T14:19:14;98698.88;;;18.58;77.97
62942;BME280;49042;47.318;19.874;2022-09-27T14:22:19;98684.88;;;18.25;79.39
62942;BME280;49042;47.318;19.874;2022-09-27T14:25:21;98687.09;;;18.39;77.33
62942;BME280;49042;47.318;19.874;2022-09-27T14:28:28;98689.06;;;18.33;77.54
62942;BME280;49042;47.318;19.874;2022-09-27T14:31:31;98687.12;;;18.38;76.64
62942;BME280;49042;47.318;19.874;2022-09-27T14:34:33;98683.56;;;18.40;77.41
62942;BME280;49042;47.318;19.874;2022-09-27T14:37:35;98687.53;;;18.24;78.80
62942;BME280;49042;47.318;19.874;2022-09-27T14:43:54;98679.00;;;18.14;79.44
62942;BME280;49042;47.318;19.874;2022-09-27T14:47:26;98686.50;;;17.97;nan
62942;BME280;49042;47.318;19.874;2022-09-27T14:50:29;98689.06;;;17.99;80.64
62942;BME280;49042;47.318;19.874;2022-09-27T14:53:33;98689.91;;;17.68;82.20
62942;BME280;49042;47.318;19.874;2022-09-27T14:56:37;98683.72;;;17.70;82.74
62942;BME280;49042;47.318;19.874;2022-09-27T14:59:40;98695.09;;;17.71;83.77
62942;BME280;49042;47.318;19.874;2022-09-27T15:02:48;98697.41;;;17.50;85.14
62942;BME280;49042;47.318;19.874;2022-09-27T15:05:51;98686.56;;;17.61;84.94
62942;BME280;49042;47.318;19.874;2022-09-27T15:08:54;98690.13;;;17.25;86.85
62942;BME280;49042;47.318;19.874;2022-09-27T15:11:58;98697.03;;;17.29;87.02
62942;BME280;49042;47.318;19.874;2022-09-27T15:15:05;98691.84;;;17.26;88.65
62942;BME280;49042;47.318;19.874;2022-09-27T15:18:44;98703.97;;;16.95;94.82
62942;BME280;49042;47.318;19.874;2022-09-27T15:21:47;98689.13;;;16.92;93.13
62942;BME280;49042;47.318;19.874;2022-09-27T15:24:49;98684.59;;;16.97;92.52
62942;BME280;49042;47.318;19.874;2022-09-27T15:27:53;98690.31;;;16.78;98.42
62942;BME280;49042;47.318;19.874;2022-09-27T15:30:56;98685.88;;;16.79;97.29
62942;BME280;49042;47.318;19.874;2022-09-27T15:33:59;98686.75;;;16.79;95.94
62942;BME280;49042;47.318;19.874;2022-09-27T15:37:01;98702.03;;;16.63;99.41
62942;BME280;49042;47.318;19.874;2022-09-27T15:43:35;98700.00;;;16.35;100.00
62942;BME280;49042;47.318;19.874;2022-09-27T15:46:41;98701.16;;;16.21;100.00
62942;BME280;49042;47.318;19.874;2022-09-27T15:49:43;98705.44;;;16.25;100.00
62942;BME280;49042;47.318;19.874;2022-09-27T15:52:48;98705.19;;;16.38;100.00
62942;BME280;49042;47.318;19.874;2022-09-27T15:56:02;98700.50;;;16.10;100.00
62942;BME280;49042;47.318;19.874;2022-09-27T15:59:23;98707.84;;;16.38;100.00
62942;BME280;49042;47.318;19.874;2022-09-27T16:02:27;98713.09;;;16.38;100.00
62942;BME280;49042;47.318;19.874;2022-09-27T16:05:31;98706.00;;;16.42;100.00
62942;BME280;49042;47.318;19.874;2022-09-27T16:08:33;98709.56;;;16.39;100.00
62942;BME280;49042;47.318;19.874;2022-09-27T16:11:35;98717.47;;;16.39;100.00
62942;BME280;49042;47.318;19.874;2022-09-27T16:14:37;98720.47;;;16.19;100.00
62942;BME280;49042;47.318;19.874;2022-09-27T16:17:38;98731.56;;;15.87;100.00
62942;BME280;49042;47.318;19.874;2022-09-27T16:20:43;98741.81;;;15.52;95.08
62942;BME280;49042;47.318;19.874;2022-09-27T16:23:45;98749.41;;;15.15;94.62
62942;BME280;49042;47.318;19.874;2022-09-27T16:26:46;98754.12;;;14.88;96.09
62942;BME280;49042;47.318;19.874;2022-09-27T16:29:48;98748.28;;;14.67;100.00
62942;BME280;49042;47.318;19.874;2022-09-27T16:32:52;98761.34;;;14.72;100.00
62942;BME280;49042;47.318;19.874;2022-09-27T16:35:54;98776.34;;;14.60;100.00
62942;BME280;49042;47.318;19.874;2022-09-27T16:38:56;98790.66;;;14.34;100.00
62942;BME280;49042;47.318;19.874;2022-09-27T16:41:57;98804.00;;;14.12;100.00
62942;BME280;49042;47.318;19.874;2022-09-27T16:45:00;98804.03;;;14.07;100.00
62942;BME280;49042;47.318;19.874;2022-09-27T16:48:11;98825.06;;;13.99;100.00
62942;BME280;49042;47.318;19.874;2022-09-27T16:51:18;98837.41;;;13.86;100.00
62942;BME280;49042;47.318;19.874;2022-09-27T16:54:39;98830.56;;;13.69;100.00
62942;BME280;49042;47.318;19.874;2022-09-27T16:57:40;98830.59;;;13.65;100.00
62942;BME280;49042;47.318;19.874;2022-09-27T17:00:42;98835.91;;;13.60;100.00
62942;BME280;49042;47.318;19.874;2022-09-27T17:03:49;98851.66;;;13.49;100.00
62942;BME280;49042;47.318;19.874;2022-09-27T17:06:57;98848.97;;;13.54;100.00
62942;BME280;49042;47.318;19.874;2022-09-27T17:09:59;98863.91;;;13.45;100.00
62942;BME280;49042;47.318;19.874;2022-09-27T17:13:01;98864.78;;;13.39;100.00
62942;BME280;49042;47.318;19.874;2022-09-27T17:16:04;98856.09;;;13.34;100.00
62942;BME280;49042;47.318;19.874;2022-09-27T17:19:15;98850.06;;;13.24;100.00
62942;BME280;49042;47.318;19.874;2022-09-27T17:22:19;98850.09;;;13.12;100.00
62942;BME280;49042;47.318;19.874;2022-09-27T17:25:20;98854.53;;;13.03;100.00
62942;BME280;49042;47.318;19.874;2022-09-27T17:28:22;98857.16;;;12.94;100.00
62942;BME280;49042;47.318;19.874;2022-09-27T17:31:24;98858.06;;;12.91;100.00
62942;BME280;49042;47.318;19.874;2022-09-27T17:34:26;98851.97;;;12.88;100.00
62942;BME280;49042;47.318;19.874;2022-09-27T17:37:28;98844.16;;;12.86;100.00
62942;BME280;49042;47.318;19.874;2022-09-27T17:40:31;98854.66;;;12.69;100.00
62942;BME280;49042;47.318;19.874;2022-09-27T17:43:33;98846.81;;;12.66;100.00
62942;BME280;49042;47.318;19.874;2022-09-27T17:46:36;98854.72;;;12.58;100.00
62942;BME280;49042;47.318;19.874;2022-09-27T17:49:38;98866.03;;;12.44;100.00
62942;BME280;49042;47.318;19.874;2022-09-27T17:53:00;98865.19;;;12.40;100.00
62942;BME280;49042;47.318;19.874;2022-09-27T17:56:04;98873.06;;;12.29;100.00
62942;BME280;49042;47.318;19.874;2022-09-27T17:59:07;98873.06;;;12.20;100.00